Time;durP1;ratioP1;P1;durP2;ratioP2;P2;SDS_P1;SDS_P2;PMS_P1;PMS_P2;Temp;Humidity;BMP_temperature;BMP_pressure;BME280_temperature;BME280_humidity;BME280_pressure;Samples;Min_cycle;Max_cycle;Signal;HPM_P1;HPM_P2
2023/01/13 00:01:18;;;;;;;4.03;2.67;;;;;;;4.82;90.78;101278.41;5093623;28;20051;-82
2023/01/13 00:03:44;;;;;;;2.63;2.33;;;;;;;4.79;90.54;101257.25;5112202;28;20064;-82
2023/01/13 00:06:16;;;;;;;10.82;6.10;;;;;;;4.78;90.44;101263.50;5093759;28;20110;-81
2023/01/13 00:08:41;;;;;;;9.57;4.00;;;;;;;4.74;89.98;101265.44;5093701;28;20034;-84
2023/01/13 00:11:08;;;;;;;3.35;2.65;;;;;;;4.80;90.29;101277.63;5093831;28;20035;-83
2023/01/13 00:13:34;;;;;;;1.80;1.50;;;;;;;4.83;90.19;101280.16;5093628;28;20085;-81
2023/01/13 00:16:07;;;;;;;1.92;1.60;;;;;;;4.83;90.54;101265.00;5111959;28;20032;-81
2023/01/13 00:18:33;;;;;;;2.28;1.30;;;;;;;4.87;90.01;101276.38;5111867;28;20020;-82
2023/01/13 00:21:04;;;;;;;2.40;1.65;;;;;;;4.97;90.11;101275.03;5093397;28;20042;-81
2023/01/13 00:23:32;;;;;;;1.40;1.30;;;;;;;5.00;89.89;101282.88;5093479;28;20054;-81
2023/01/13 00:25:59;;;;;;;2.28;1.83;;;;;;;5.00;89.51;101277.53;5111651;28;20026;-83
2023/01/13 00:28:24;;;;;;;1.73;1.60;;;;;;;5.00;89.74;101272.22;5092877;28;20016;-82
2023/01/13 00:30:50;;;;;;;3.83;1.98;;;;;;;4.99;88.93;101266.94;5093056;28;20031;-82
2023/01/13 00:33:16;;;;;;;2.30;1.65;;;;;;;5.02;88.92;101266.78;5111556;28;20103;-82
2023/01/13 00:35:41;;;;;;;2.53;1.45;;;;;;;4.92;88.47;101269.91;5092870;28;20054;-82
2023/01/13 00:38:06;;;;;;;2.17;1.90;;;;;;;5.00;88.64;101258.88;5093017;28;20020;-81
2023/01/13 00:40:32;;;;;;;2.08;1.52;;;;;;;5.04;88.71;101256.94;5092850;28;20509;-82
2023/01/13 00:45:42;;;;;;;1.50;1.40;;;;;;;5.12;87.75;101244.09;5110986;28;20111;-82
2023/01/13 00:48:08;;;;;;;1.77;1.55;;;;;;;5.15;87.86;101242.13;5110761;28;20055;-83
2023/01/13 00:50:33;;;;;;;1.40;1.30;;;;;;;5.19;88.04;101242.84;5092574;28;20129;-81
2023/01/13 00:52:59;;;;;;;1.60;1.38;;;;;;;5.18;87.90;101241.97;5092482;28;20107;-81
2023/01/13 00:55:25;;;;;;;1.83;1.55;;;;;;;5.24;88.34;101233.69;5093372;28;20074;-81
2023/01/13 00:57:51;;;;;;;2.13;1.70;;;;;;;5.25;88.45;101235.41;5113356;28;20458;-81
2023/01/13 01:00:17;;;;;;;2.45;1.70;;;;;;;5.26;88.30;101242.47;5119428;28;20043;-82
2023/01/13 01:02:42;;;;;;;2.03;1.77;;;;;;;5.18;88.01;101249.97;5100308;28;20035;-81
2023/01/13 01:05:08;;;;;;;2.50;1.77;;;;;;;5.10;87.57;101244.19;5093143;28;20031;-82
2023/01/13 01:07:34;;;;;;;1.95;1.70;;;;;;;4.99;87.13;101232.28;5111117;28;20043;-81
2023/01/13 01:09:59;;;;;;;2.55;1.40;;;;;;;4.87;87.20;101241.75;5092472;28;20035;-82
2023/01/13 01:12:25;;;;;;;1.67;1.27;;;;;;;4.87;87.57;101241.75;5092329;28;20031;-82
2023/01/13 01:14:50;;;;;;;2.20;1.40;;;;;;;4.99;88.08;101243.81;5092272;28;20107;-82
2023/01/13 01:17:16;;;;;;;1.80;1.50;;;;;;;4.91;88.66;101233.53;5092288;28;20028;-83
2023/01/13 01:19:41;;;;;;;1.75;1.63;;;;;;;4.95;88.72;101244.91;5092198;28;20131;-82
2023/01/13 01:22:07;;;;;;;2.15;1.90;;;;;;;4.99;88.91;101243.81;5092216;28;20510;-83
2023/01/13 01:24:32;;;;;;;1.80;1.70;;;;;;;5.00;88.81;101245.56;5092412;28;20027;-82
2023/01/13 01:26:58;;;;;;;3.97;2.20;;;;;;;4.98;88.74;101250.09;5092099;28;20031;-82
2023/01/13 01:29:23;;;;;;;1.67;1.58;;;;;;;4.90;88.46;101236.25;5092074;28;20028;-82
2023/01/13 01:31:49;;;;;;;2.08;1.52;;;;;;;4.92;88.58;101245.06;5092079;28;20024;-81
2023/01/13 01:34:14;;;;;;;2.30;2.08;;;;;;;4.94;88.55;101248.50;5092302;28;20031;-81
2023/01/13 01:36:39;;;;;;;2.58;2.10;;;;;;;4.91;87.74;101259.31;5091968;28;20029;-83
2023/01/13 01:39:05;;;;;;;2.20;2.00;;;;;;;4.87;88.28;101252.41;5110746;28;20100;-83
2023/01/13 01:41:33;;;;;;;2.58;2.38;;;;;;;4.99;88.52;101249.16;5110034;28;20027;-83
2023/01/13 01:44:07;;;;;;;2.95;2.60;;;;;;;4.93;88.33;101229.00;5092258;28;20046;-83
2023/01/13 01:46:41;;;;;;;3.55;2.40;;;;;;;5.05;88.53;101242.66;5110603;28;20020;-82
2023/01/13 01:49:22;;;;;;;2.40;2.17;;;;;;;5.07;88.47;101241.66;5111248;28;20479;-83
2023/01/13 01:51:55;;;;;;;3.88;2.15;;;;;;;4.98;88.12;101226.13;5092123;28;20126;-82
2023/01/13 01:54:30;;;;;;;5.47;2.63;;;;;;;5.08;87.86;101238.03;5111370;28;20112;-85
2023/01/13 01:56:56;;;;;;;3.10;2.72;;;;;;;5.13;88.35;101235.16;5110379;28;20533;-83
2023/01/13 01:59:22;;;;;;;3.97;2.95;;;;;;;5.12;88.85;101228.97;5092528;28;20115;-83
2023/01/13 02:01:48;;;;;;;6.93;4.38;;;;;;;5.19;88.55;101243.72;5110525;28;20487;-83
2023/01/13 02:04:19;;;;;;;4.53;3.05;;;;;;;5.14;88.25;101236.88;5110889;28;20042;-84
2023/01/13 02:06:46;;;;;;;6.68;2.83;;;;;;;5.16;88.20;101235.88;5110617;28;20112;-84
2023/01/13 02:09:12;;;;;;;4.18;3.15;;;;;;;5.14;88.40;101242.19;5111332;28;20035;-84
2023/01/13 02:14:26;;;;;;;5.80;3.28;;;;;;;5.20;88.26;101242.75;5133256;28;20119;-83
2023/01/13 02:17:24;;;;;;;3.78;3.20;;;;;;;5.16;88.26;101243.88;5134568;28;20030;-83
2023/01/13 02:19:53;;;;;;;4.72;3.33;;;;;;;5.10;88.01;101253.97;5117016;28;20493;-84
2023/01/13 02:22:24;;;;;;;5.75;2.72;;;;;;;5.14;87.85;101247.53;5115794;28;20081;-84
2023/01/13 02:25:22;;;;;;;3.20;2.73;;;;;;;5.05;87.70;101240.84;5113325;28;20028;-84
2023/01/13 02:28:26;;;;;;;5.43;3.33;;;;;;;5.10;87.25;101245.97;5091841;28;20058;-84
2023/01/13 02:34:07;;;;;;;5.53;3.33;;;;;;;4.94;87.31;101244.06;5007793;28;20139;-83
2023/01/13 02:36:56;;;;;;;5.93;4.05;;;;;;;5.02;88.11;101243.66;5007225;28;20074;-82
2023/01/13 02:39:23;;;;;;;6.70;4.20;;;;;;;5.00;88.40;101232.22;5008576;28;20038;-84
2023/01/13 02:44:44;;;;;;;;;;;;;;;5.11;88.17;101251.22;5007320;28;20041;-84
2023/01/13 02:47:18;;;;;;;3.22;2.67;;;;;;;5.04;87.92;101252.47;5007064;28;20436;-84
2023/01/13 02:49:49;;;;;;;4.60;2.63;;;;;;;4.96;87.60;101251.97;5006904;28;20072;-84
2023/01/13 02:52:44;;;;;;;4.20;3.13;;;;;;;5.07;88.41;101249.66;5008109;28;20049;-84
2023/01/13 02:55:38;;;;;;;5.43;3.42;;;;;;;5.04;88.38;101251.59;4971332;28;20074;-85
2023/01/13 02:58:07;;;;;;;3.58;2.90;;;;;;;4.98;88.12;101257.22;4952702;29;20151;-86
2023/01/13 03:00:35;;;;;;;3.33;2.50;;;;;;;4.91;87.84;101241.53;4937340;29;20039;-84
2023/01/13 03:03:02;;;;;;;2.92;2.42;;;;;;;5.03;87.79;101245.41;4959151;29;20044;-85
2023/01/13 03:05:29;;;;;;;4.22;2.80;;;;;;;4.95;88.20;101229.78;4962080;29;20510;-85
2023/01/13 03:08:14;;;;;;;3.15;2.63;;;;;;;5.08;88.23;101243.38;4988745;28;20069;-84
2023/01/13 03:10:52;;;;;;;3.63;2.63;;;;;;;5.17;88.50;101239.41;5010440;28;20126;-85
2023/01/13 03:13:20;;;;;;;3.28;2.40;;;;;;;5.22;88.41;101240.91;5010181;28;20144;-84
2023/01/13 03:16:12;;;;;;;3.92;2.83;;;;;;;5.18;88.03;101233.13;5010402;28;20209;-84
2023/01/13 03:18:49;;;;;;;4.28;2.88;;;;;;;5.02;87.32;101249.00;5010139;28;20096;-84
2023/01/13 03:21:36;;;;;;;2.78;2.15;;;;;;;5.08;87.21;101250.50;5010007;28;20100;-84
2023/01/13 03:24:29;;;;;;;3.17;2.35;;;;;;;4.96;87.02;101238.63;5009965;28;20498;-85
2023/01/13 03:27:12;;;;;;;2.03;1.70;;;;;;;4.93;87.20;101238.78;5010328;28;20045;-85
2023/01/13 03:29:44;;;;;;;3.63;2.38;;;;;;;4.94;87.37;101240.53;5010188;28;20047;-84
2023/01/13 03:32:22;;;;;;;2.97;2.42;;;;;;;4.99;87.89;101254.47;5023641;28;20033;-85
2023/01/13 03:34:53;;;;;;;3.78;2.88;;;;;;;4.92;88.15;101240.56;5088006;28;20035;-85
2023/01/13 03:37:25;;;;;;;2.50;2.30;;;;;;;5.06;88.21;101255.06;5113050;28;20425;-85
2023/01/13 03:39:56;;;;;;;2.35;2.15;;;;;;;5.02;88.29;101238.34;5112800;28;20027;-85
2023/01/13 03:42:25;;;;;;;2.25;2.05;;;;;;;4.94;87.89;101243.19;5112792;28;20080;-85
2023/01/13 03:45:00;;;;;;;2.95;2.33;;;;;;;4.92;87.76;101250.41;5112541;28;20031;-85
2023/01/13 03:47:40;;;;;;;3.70;2.28;;;;;;;4.94;88.09;101245.84;5089262;28;20800;-84
2023/01/13 03:50:14;;;;;;;1.67;1.58;;;;;;;4.85;88.47;101241.84;5089549;28;20135;-84
2023/01/13 03:52:46;;;;;;;1.90;1.70;;;;;;;4.95;88.88;101247.59;5089224;28;20043;-85
2023/01/13 03:55:17;;;;;;;2.78;2.22;;;;;;;4.92;88.79;101234.41;5089904;28;20034;-84
2023/01/13 03:58:21;;;;;;;4.20;2.00;;;;;;;5.00;89.60;101253.56;5089621;28;20036;-84
2023/01/13 04:00:50;;;;;;;2.70;2.50;;;;;;;4.99;89.68;101248.28;5029154;28;20273;-86
2023/01/13 04:03:29;;;;;;;5.22;2.30;;;;;;;5.11;89.76;101248.53;5028472;28;20483;-85
2023/01/13 04:06:02;;;;;;;1.95;1.80;;;;;;;5.12;89.46;101255.63;5028973;28;20041;-85
2023/01/13 04:08:29;;;;;;;2.95;2.25;;;;;;;5.07;89.20;101247.00;5029258;28;20033;-85
2023/01/13 04:11:06;;;;;;;4.07;2.65;;;;;;;5.10;89.36;101262.84;5028848;28;20048;-85
2023/01/13 04:13:37;;;;;;;3.83;2.83;;;;;;;5.13;89.38;101262.69;5028812;28;20599;-84
2023/01/13 04:16:05;;;;;;;3.30;2.58;;;;;;;5.09;89.36;101260.22;5028775;28;20037;-84
2023/01/13 04:18:31;;;;;;;4.28;2.95;;;;;;;5.01;88.97;101262.41;5029061;28;20549;-86
2023/01/13 04:20:59;;;;;;;4.72;2.95;;;;;;;4.97;89.06;101245.69;5012905;28;20128;-85
2023/01/13 04:23:26;;;;;;;3.33;2.65;;;;;;;5.01;89.40;101257.09;5029727;28;20039;-86
2023/01/13 04:25:52;;;;;;;2.72;2.42;;;;;;;4.92;89.42;101258.41;5046850;28;20041;-85
2023/01/13 04:28:18;;;;;;;3.55;2.70;;;;;;;4.80;89.52;101243.84;5048525;28;20048;-87
2023/01/13 04:30:45;;;;;;;4.15;3.22;;;;;;;4.95;89.88;101271.56;5048986;28;20040;-86
2023/01/13 04:33:11;;;;;;;5.13;3.78;;;;;;;4.93;90.35;101255.66;5049302;28;20037;-84
2023/01/13 04:35:37;;;;;;;6.70;4.55;;;;;;;4.98;90.46;101274.09;5046092;28;20077;-84
2023/01/13 04:38:04;;;;;;;6.00;4.63;;;;;;;5.02;90.52;101262.31;5111599;28;20016;-84
2023/01/13 04:40:30;;;;;;;8.38;5.40;;;;;;;4.98;90.63;101263.44;5111585;28;20458;-84
2023/01/13 04:42:55;;;;;;;5.45;3.63;;;;;;;5.06;90.41;101279.91;5111577;28;20035;-84
2023/01/13 04:45:21;;;;;;;7.70;5.15;;;;;;;5.00;90.23;101268.69;5092897;28;20114;-85
2023/01/13 04:47:47;;;;;;;10.25;6.63;;;;;;;4.97;90.39;101269.69;5111959;28;20032;-86
2023/01/13 04:50:13;;;;;;;11.27;6.93;;;;;;;4.94;90.12;101261.84;5111441;28;20027;-84
2023/01/13 04:52:39;;;;;;;6.75;4.13;;;;;;;5.07;90.20;101276.31;5111352;28;20052;-85
2023/01/13 04:55:05;;;;;;;8.23;4.15;;;;;;;5.02;90.23;101286.31;5111157;28;20027;-86
2023/01/13 04:57:33;;;;;;;7.60;5.13;;;;;;;5.00;89.51;101282.88;5111189;28;20039;-84
2023/01/13 04:59:59;;;;;;;5.88;4.32;;;;;;;5.05;89.64;101286.16;5111695;28;20050;-86
2023/01/13 05:02:25;;;;;;;5.40;3.67;;;;;;;5.03;90.15;101293.38;5112637;28;20063;-85
2023/01/13 05:04:50;;;;;;;5.72;4.10;;;;;;;4.94;89.45;101288.50;5112620;28;20845;-85
2023/01/13 05:07:16;;;;;;;5.45;3.67;;;;;;;4.84;89.43;101285.41;5105182;28;20061;-83
2023/01/13 05:09:41;;;;;;;5.18;3.75;;;;;;;4.92;89.79;101290.38;5129315;28;20534;-83
2023/01/13 05:17:37;;;;;;;7.15;4.45;;;;;;;4.92;90.22;101290.38;5113320;28;20088;-85
2023/01/13 05:20:04;;;;;;;6.60;4.95;;;;;;;5.07;90.58;101300.31;5112574;28;20024;-84
2023/01/13 05:25:26;;;;;;;4.70;3.75;;;;;;;5.02;90.54;101285.44;5112960;28;20099;-85
2023/01/13 05:27:54;;;;;;;6.32;4.28;;;;;;;5.08;90.61;101283.34;5113117;28;20391;-84
2023/01/13 05:30:22;;;;;;;5.68;4.13;;;;;;;5.17;90.48;101288.25;5095124;28;20026;-84
2023/01/13 05:32:47;;;;;;;5.40;3.55;;;;;;;5.25;90.35;101299.41;5094992;28;20023;-84
2023/01/13 05:35:14;;;;;;;4.88;3.65;;;;;;;5.30;90.39;101302.72;5094473;28;20028;-85
2023/01/13 05:37:43;;;;;;;7.80;4.72;;;;;;;5.36;90.43;101302.41;5094134;28;20028;-85
2023/01/13 05:43:19;;;;;;;10.60;4.18;;;;;;;5.37;90.29;101298.81;5112148;28;20089;-86
2023/01/13 05:45:52;;;;;;;5.47;3.72;;;;;;;5.30;89.93;101289.38;5094061;28;20114;-85
2023/01/13 05:48:20;;;;;;;6.07;3.75;;;;;;;5.32;89.32;101284.00;5112747;28;20031;-86
2023/01/13 05:50:48;;;;;;;6.80;4.72;;;;;;;5.26;89.00;101301.13;5112497;28;20032;-86
2023/01/13 05:53:13;;;;;;;7.95;4.40;;;;;;;5.37;89.58;101293.47;5093866;28;20478;-85
2023/01/13 05:55:43;;;;;;;6.57;4.72;;;;;;;5.38;90.02;101295.19;5094526;28;20031;-84
2023/01/13 05:58:10;;;;;;;6.68;4.57;;;;;;;5.40;90.09;101298.66;5112308;28;20024;-84
2023/01/13 06:00:35;;;;;;;10.65;4.70;;;;;;;5.47;89.89;101310.75;5112282;28;20081;-84
2023/01/13 06:03:01;;;;;;;6.80;5.03;;;;;;;5.53;89.58;101298.06;5113894;28;20031;-86
2023/01/13 06:05:27;;;;;;;9.45;5.25;;;;;;;5.45;89.69;101301.09;5129406;28;20008;-85
2023/01/13 06:08:00;;;;;;;9.00;6.32;;;;;;;5.61;89.60;101318.06;5133214;28;20023;-85
2023/01/13 06:10:26;;;;;;;10.07;5.63;;;;;;;5.61;89.40;101322.53;5125026;28;20035;-85
2023/01/13 06:12:52;;;;;;;12.52;6.97;;;;;;;5.46;89.40;101321.50;5119426;28;20097;-85
2023/01/13 06:15:18;;;;;;;7.53;3.85;;;;;;;5.32;89.26;101306.16;5116286;28;20028;-85
2023/01/13 06:17:43;;;;;;;7.85;5.47;;;;;;;5.45;89.31;101328.63;5112260;28;20054;-84
2023/01/13 06:20:10;;;;;;;12.18;5.82;;;;;;;5.49;89.26;101324.88;5111949;28;20036;-84
2023/01/13 06:22:38;;;;;;;8.20;4.90;;;;;;;5.62;89.77;101334.94;5110851;28;20027;-86
2023/01/13 06:25:12;;;;;;;10.77;5.70;;;;;;;5.61;90.04;101333.22;5111920;28;20558;-84
2023/01/13 06:27:39;;;;;;;8.70;5.25;;;;;;;5.53;89.80;101336.28;5114777;28;20529;-83
2023/01/13 06:30:04;;;;;;;10.23;5.93;;;;;;;5.38;89.64;101334.38;5116779;28;20024;-84
2023/01/13 06:32:41;;;;;;;8.88;5.75;;;;;;;5.28;89.63;101327.72;5097159;28;20474;-85
2023/01/13 06:35:12;;;;;;;10.45;6.35;;;;;;;5.18;89.54;101339.78;5115111;28;20055;-86
2023/01/13 06:37:39;;;;;;;9.32;5.82;;;;;;;5.17;89.51;101341.56;5115003;28;20053;-85
2023/01/13 06:40:05;;;;;;;8.77;5.88;;;;;;;5.24;89.99;101340.34;5115524;28;20413;-85
2023/01/13 06:45:20;;;;;;;12.00;7.30;;;;;;;5.08;90.52;101336.69;5115129;28;20406;-84
2023/01/13 06:47:46;;;;;;;11.02;6.28;;;;;;;5.06;90.60;101340.34;5115302;28;20035;-85
2023/01/13 06:50:11;;;;;;;12.13;7.28;;;;;;;4.99;90.42;101342.44;5114712;28;20036;-84
2023/01/13 06:52:37;;;;;;;14.88;7.82;;;;;;;5.03;90.60;101341.38;5115644;28;20050;-85
2023/01/13 06:55:03;;;;;;;15.02;8.40;;;;;;;5.12;90.63;101356.94;5097237;28;20024;-86
2023/01/13 06:57:28;;;;;;;9.07;6.03;;;;;;;5.13;91.00;101348.00;5115485;28;20031;-84
2023/01/13 06:59:54;;;;;;;12.30;6.88;;;;;;;4.99;90.62;101350.44;5115462;28;20031;-85
2023/01/13 07:02:19;;;;;;;10.05;6.78;;;;;;;4.97;90.70;101347.00;5097778;28;20028;-86
2023/01/13 07:04:45;;;;;;;11.85;7.05;;;;;;;4.96;91.01;101337.25;5096992;28;20037;-84
2023/01/13 07:07:11;;;;;;;13.23;7.43;;;;;;;5.00;91.25;101336.19;5114894;28;20070;-84
2023/01/13 07:09:38;;;;;;;11.93;6.68;;;;;;;4.93;90.96;101343.59;5114824;28;20115;-85
2023/01/13 07:12:03;;;;;;;14.75;7.95;;;;;;;4.97;91.46;101347.00;5114551;28;20040;-84
2023/01/13 07:17:12;;;;;;;13.68;6.75;;;;;;;4.86;91.46;101351.97;5117378;28;20141;-83
2023/01/13 07:19:38;;;;;;;14.15;7.72;;;;;;;4.93;91.64;101350.72;5127782;28;20088;-83
2023/01/13 07:22:03;;;;;;;12.82;7.72;;;;;;;4.93;91.77;101354.25;5117803;28;20112;-85
2023/01/13 07:24:29;;;;;;;10.75;7.50;;;;;;;4.93;91.83;101366.72;5116749;28;20015;-85
2023/01/13 07:26:54;;;;;;;9.40;6.05;;;;;;;5.01;92.00;101359.25;5116056;28;20032;-85
2023/01/13 07:29:20;;;;;;;9.27;5.88;;;;;;;5.04;92.13;101364.44;5115670;28;20019;-85
2023/01/13 07:31:46;;;;;;;10.50;6.65;;;;;;;4.96;92.12;101347.91;5115755;28;20027;-85
2023/01/13 07:34:11;;;;;;;10.82;6.35;;;;;;;5.04;92.50;101355.56;5097124;28;20032;-84
2023/01/13 07:36:38;;;;;;;11.60;6.82;;;;;;;5.01;92.03;101359.25;5115049;28;20475;-85
2023/01/13 07:39:03;;;;;;;11.63;7.05;;;;;;;5.00;92.20;101352.19;5113732;28;20024;-85
2023/01/13 07:44:13;;;;;;;7.35;5.72;;;;;;;5.11;92.31;101365.00;5114414;28;20093;-84
2023/01/13 07:46:39;;;;;;;9.80;5.75;;;;;;;5.10;91.66;101369.47;5114584;28;20443;-86
2023/01/13 07:49:05;;;;;;;7.57;6.07;;;;;;;5.12;91.38;101372.94;5114379;28;20087;-83
2023/01/13 07:51:30;;;;;;;8.45;5.43;;;;;;;5.11;91.19;101355.19;5114175;28;20059;-84
2023/01/13 07:53:56;;;;;;;7.68;5.25;;;;;;;5.13;91.25;101377.34;5113505;28;20441;-86
2023/01/13 07:56:21;;;;;;;9.23;5.28;;;;;;;5.16;91.06;101368.31;5095193;28;20035;-84
2023/01/13 07:58:49;;;;;;;12.60;5.43;;;;;;;5.05;91.17;101376.81;5114298;28;20038;-85
2023/01/13 08:01:16;;;;;;;11.82;6.20;;;;;;;5.25;91.69;101390.09;5095857;28;20383;-86
2023/01/13 08:03:42;;;;;;;9.98;5.25;;;;;;;5.27;91.60;101380.19;5114801;28;20054;-85
2023/01/13 08:06:09;;;;;;;7.43;5.25;;;;;;;5.20;91.88;101368.09;5114290;28;20067;-85
2023/01/13 08:08:35;;;;;;;8.13;5.80;;;;;;;5.24;92.16;101367.03;5113571;28;20040;-86
2023/01/13 08:11:03;;;;;;;10.63;5.68;;;;;;;5.28;91.99;101387.28;5095344;28;20107;-84
2023/01/13 08:13:28;;;;;;;14.13;8.00;;;;;;;5.24;91.59;101383.03;5115593;28;20035;-84
2023/01/13 08:16:00;;;;;;;12.05;7.55;;;;;;;5.30;91.29;101393.38;5070745;28;20101;-85
2023/01/13 08:18:25;;;;;;;15.37;7.63;;;;;;;5.26;91.29;101377.63;5070305;28;20040;-84
2023/01/13 08:20:51;;;;;;;9.57;5.95;;;;;;;5.33;91.31;101387.91;5053824;28;20450;-86
2023/01/13 08:23:18;;;;;;;9.13;5.65;;;;;;;5.16;90.48;101389.66;5070575;28;20035;-85
2023/01/13 08:25:44;;;;;;;10.57;5.50;;;;;;;5.16;90.82;101389.66;5070841;28;20036;-85
2023/01/13 08:28:10;;;;;;;8.32;5.28;;;;;;;5.25;90.98;101394.56;5070224;28;20039;-85
2023/01/13 08:30:35;;;;;;;16.10;8.70;;;;;;;5.38;91.37;101390.38;5070611;28;20127;-86
2023/01/13 08:33:01;;;;;;;9.45;5.95;;;;;;;5.27;90.66;101393.53;5070349;28;20028;-85
2023/01/13 08:35:26;;;;;;;8.50;5.88;;;;;;;5.28;90.39;101400.63;5053235;28;20036;-85
2023/01/13 08:37:52;;;;;;;7.35;5.63;;;;;;;5.29;90.68;101402.31;5070272;28;20035;-85
2023/01/13 08:40:19;;;;;;;10.88;6.55;;;;;;;5.23;90.10;101391.09;5070852;28;20047;-86
2023/01/13 08:42:45;;;;;;;10.30;6.70;;;;;;;5.22;89.78;101390.22;5070401;28;20071;-86
2023/01/13 08:45:12;;;;;;;10.80;6.93;;;;;;;5.22;89.62;101395.56;5053204;28;20040;-85
2023/01/13 08:47:38;;;;;;;12.73;7.57;;;;;;;5.22;89.83;101395.56;5104766;28;20027;-86
2023/01/13 08:50:04;;;;;;;13.25;8.38;;;;;;;5.29;90.08;101386.31;5113376;28;20098;-87
2023/01/13 08:52:30;;;;;;;17.83;9.63;;;;;;;5.29;90.56;101375.66;5112921;28;20043;-86
2023/01/13 08:54:55;;;;;;;12.85;8.45;;;;;;;5.35;90.54;101399.38;5113832;28;20107;-85
2023/01/13 08:57:21;;;;;;;15.05;9.35;;;;;;;5.37;90.36;101384.16;5113417;28;20066;-86
2023/01/13 08:59:47;;;;;;;14.75;8.55;;;;;;;5.44;90.09;101379.41;5113033;28;20031;-85
2023/01/13 09:02:14;;;;;;;16.25;8.65;;;;;;;5.46;90.02;101378.41;5095012;28;20032;-85
2023/01/13 09:04:40;;;;;;;16.33;8.05;;;;;;;5.53;89.89;101378.09;5113057;28;20020;-84
2023/01/13 09:07:05;;;;;;;13.15;8.43;;;;;;;5.56;89.26;101392.16;5113427;28;20099;-84
2023/01/13 09:09:31;;;;;;;13.52;7.55;;;;;;;5.65;88.94;101401.50;5113005;28;20035;-87
2023/01/13 09:14:40;;;;;;;15.15;8.82;;;;;;;5.51;88.63;101372.81;5113619;28;20034;-85
2023/01/13 09:17:06;;;;;;;19.45;12.13;;;;;;;5.60;88.41;101384.84;5113819;28;20065;-87
2023/01/13 09:19:32;;;;;;;19.48;10.88;;;;;;;5.66;89.05;101368.53;5119425;28;20100;-85
2023/01/13 09:21:58;;;;;;;11.63;7.82;;;;;;;5.49;88.64;101362.25;5117918;28;20488;-85
2023/01/13 09:24:24;;;;;;;15.07;9.40;;;;;;;5.56;88.04;101375.28;5116107;28;20102;-85
2023/01/13 09:26:50;;;;;;;15.32;8.95;;;;;;;5.56;88.30;101383.28;5123057;28;20057;-85
2023/01/13 09:29:16;;;;;;;15.80;9.07;;;;;;;5.65;88.45;101377.50;5122256;28;20027;-86
2023/01/13 09:31:42;;;;;;;12.10;9.07;;;;;;;5.73;88.98;101369.97;5116182;28;20100;-87
2023/01/13 09:36:58;;;;;;;21.42;10.35;;;;;;;5.86;89.46;101372.00;5116294;28;20091;-87
2023/01/13 09:39:23;;;;;;;13.57;9.30;;;;;;;5.78;88.58;101351.94;5097404;28;20057;-85
2023/01/13 09:44:51;;;;;;;17.40;10.55;;;;;;;5.87;88.66;101363.03;5094775;28;20058;-87
2023/01/13 09:47:21;;;;;;;14.93;10.48;;;;;;;5.95;88.25;101362.66;5094700;28;20058;-84
2023/01/13 09:49:47;;;;;;;22.13;11.68;;;;;;;6.05;88.34;101355.91;5093974;28;20375;-86
2023/01/13 09:52:18;;;;;;;17.15;11.35;;;;;;;6.03;88.02;101350.63;5092019;28;20043;-85
2023/01/13 09:55:19;;;;;;;18.70;10.63;;;;;;;6.10;87.82;101350.31;5094929;28;20529;-85
2023/01/13 09:57:44;;;;;;;15.32;9.25;;;;;;;6.08;87.88;101342.41;4997416;28;20073;-87
2023/01/13 10:00:22;;;;;;;15.27;10.25;;;;;;;5.97;87.47;101328.72;5014382;28;20033;-86
2023/01/13 10:02:56;;;;;;;18.00;11.02;;;;;;;6.15;87.71;101351.81;5025898;28;20045;-85
2023/01/13 10:05:36;;;;;;;16.77;9.00;;;;;;;6.17;87.52;101333.91;5031643;28;20048;-85
2023/01/13 10:08:22;;;;;;;15.52;10.38;;;;;;;6.34;87.41;101338.34;5027543;28;20041;-85
2023/01/13 10:10:54;;;;;;;14.95;9.13;;;;;;;6.33;87.07;101326.81;5023215;28;20125;-85
2023/01/13 10:13:28;;;;;;;16.55;9.30;;;;;;;6.46;87.50;101330.56;5019810;28;20541;-87
2023/01/13 10:16:06;;;;;;;20.33;10.25;;;;;;;6.35;86.85;101318.72;5033219;28;20135;-86
2023/01/13 10:18:43;;;;;;;15.93;9.07;;;;;;;6.45;86.76;101323.47;5031530;28;20096;-85
2023/01/13 10:21:19;;;;;;;14.52;9.05;;;;;;;6.41;86.31;101334.44;5009249;28;20049;-87
2023/01/13 10:23:56;;;;;;;18.85;11.30;;;;;;;6.43;86.99;101324.50;5009929;28;20529;-84
2023/01/13 10:26:23;;;;;;;12.80;8.88;;;;;;;6.42;86.06;101320.13;5009971;28;20033;-87
2023/01/13 10:28:56;;;;;;;13.90;8.93;;;;;;;6.41;86.13;101315.72;5010265;28;20458;-86
2023/01/13 10:31:22;;;;;;;;;;;;;;;6.46;86.37;101319.00;5011748;28;20050;-86
2023/01/13 10:33:48;;;;;;;13.70;9.93;;;;;;;6.42;85.95;101309.44;5025565;28;19912;-86
2023/01/13 10:36:16;;;;;;;17.65;12.25;;;;;;;6.52;85.87;101306.19;5091320;28;20059;-87
2023/01/13 10:38:43;;;;;;;17.33;11.63;;;;;;;6.54;86.31;101301.63;5090546;28;20036;-86
2023/01/13 10:41:24;;;;;;;19.00;13.23;;;;;;;6.62;86.79;101308.38;5073734;28;20047;-87
2023/01/13 10:44:04;;;;;;;20.23;11.40;;;;;;;6.54;85.87;101314.13;5100786;28;20043;-87
2023/01/13 10:46:48;;;;;;;18.98;10.82;;;;;;;6.62;86.25;101308.38;5083829;28;20028;-85
2023/01/13 10:49:32;;;;;;;19.63;11.10;;;;;;;6.61;85.83;101311.97;5096687;28;20107;-86
2023/01/13 10:51:59;;;;;;;22.40;13.32;;;;;;;6.51;85.31;101307.13;5084439;28;20075;-86
2023/01/13 10:54:25;;;;;;;18.63;10.77;;;;;;;6.43;84.85;101312.03;5113482;28;20399;-85
2023/01/13 10:57:22;;;;;;;21.15;11.15;;;;;;;6.42;84.80;101312.97;5113900;28;20035;-86
2023/01/13 10:59:49;;;;;;;18.75;11.95;;;;;;;6.43;85.02;101309.34;5092970;28;20115;-86
2023/01/13 11:02:28;;;;;;;17.65;10.30;;;;;;;6.52;85.57;101300.84;5113512;28;20458;-87
2023/01/13 11:04:53;;;;;;;15.35;9.57;;;;;;;6.56;85.16;101313.09;5113310;28;20032;-86
2023/01/13 11:07:31;;;;;;;14.55;8.95;;;;;;;6.51;85.32;101304.44;5113349;28;20097;-87
2023/01/13 11:10:22;;;;;;;20.42;12.05;;;;;;;6.49;86.65;101305.47;5111739;28;20104;-85
2023/01/13 11:13:18;;;;;;;12.98;7.97;;;;;;;6.44;87.34;101303.06;5093742;28;20441;-86
2023/01/13 11:15:56;;;;;;;14.73;9.93;;;;;;;6.38;87.07;101300.72;5115252;28;20110;-85
2023/01/13 11:18:31;;;;;;;14.45;8.93;;;;;;;6.34;86.46;101309.84;5114225;28;20089;-88
2023/01/13 11:20:59;;;;;;;13.15;9.13;;;;;;;6.28;86.95;101298.63;5096268;28;20077;-86
2023/01/13 11:23:36;;;;;;;13.05;8.10;;;;;;;6.32;86.73;101306.41;5114954;28;20176;-87
2023/01/13 11:26:16;;;;;;;11.57;7.47;;;;;;;6.41;88.09;101310.38;5115144;28;20032;-86
2023/01/13 11:29:04;;;;;;;21.75;10.95;;;;;;;6.47;87.87;101310.06;5118487;28;20501;-87
2023/01/13 11:31:38;;;;;;;15.48;9.63;;;;;;;6.50;88.69;101307.22;5120481;28;20031;-85
2023/01/13 11:34:29;;;;;;;15.38;9.32;;;;;;;6.50;88.62;101305.41;5126252;28;20054;-86
2023/01/13 11:36:59;;;;;;;18.90;10.45;;;;;;;6.58;88.59;101302.31;5122342;28;20027;-86
2023/01/13 11:39:39;;;;;;;18.05;10.65;;;;;;;6.52;87.81;101292.81;5098185;28;20038;-85
2023/01/13 11:42:37;;;;;;;20.55;11.80;;;;;;;6.70;87.91;101312.34;5117040;28;20030;-87
2023/01/13 11:45:23;;;;;;;16.95;10.55;;;;;;;6.79;87.72;101313.66;5012409;28;20046;-86
2023/01/13 11:47:53;;;;;;;19.63;12.68;;;;;;;6.78;87.06;101314.59;4995951;28;20073;-85
2023/01/13 11:50:41;;;;;;;21.75;11.68;;;;;;;6.79;85.65;101316.34;4995100;28;20041;-87
2023/01/13 11:53:34;;;;;;;20.05;11.57;;;;;;;6.77;85.25;101315.53;5011852;28;20111;-86
2023/01/13 11:56:02;;;;;;;;;;;;;;;6.82;85.96;101316.19;4995407;28;20041;-85
2023/01/13 11:58:43;;;;;;;16.83;11.10;;;;;;;6.68;86.87;101311.56;5012219;28;19940;-86
2023/01/13 12:01:40;;;;;;;20.23;12.75;;;;;;;6.73;87.25;101314.00;5012572;28;20034;-88
2023/01/13 12:04:27;;;;;;;22.55;13.07;;;;;;;6.72;87.20;101315.81;5010920;28;20030;-87
2023/01/13 12:07:16;;;;;;;27.90;11.52;;;;;;;6.66;86.35;101310.81;5011448;28;20026;-86
2023/01/13 12:09:59;;;;;;;17.92;10.38;;;;;;;6.58;87.13;101305.84;5012411;28;20532;-85
2023/01/13 12:12:38;;;;;;;17.08;10.13;;;;;;;6.57;86.18;101308.63;5011457;28;20034;-87
2023/01/13 12:15:21;;;;;;;28.50;11.65;;;;;;;6.67;86.77;101314.31;4995428;28;20045;-86
2023/01/13 12:18:23;;;;;;;32.38;13.77;;;;;;;6.73;86.70;101314.00;5012078;28;20060;-85
2023/01/13 12:21:19;;;;;;;27.75;12.80;;;;;;;6.71;86.35;101299.84;5013795;28;20033;-85
2023/01/13 12:24:00;;;;;;;20.42;12.10;;;;;;;6.76;87.19;101313.84;5113510;28;20023;-86
2023/01/13 12:26:31;;;;;;;25.30;11.82;;;;;;;6.73;87.28;101311.34;5114117;28;20422;-87